Time;durP1;ratioP1;P1;durP2;ratioP2;P2;SDS_P1;SDS_P2;PMS_P1;PMS_P2;Temp;Humidity;BMP_temperature;BMP_pressure;BME280_temperature;BME280_humidity;BME280_pressure;Samples;Min_cycle;Max_cycle;Signal;HPM_P1;HPM_P2
2022/10/18 00:01:06;;;;;;;12.25;9.85;;;;;;;14.27;100.00;102454.38;4992650;28;20022;-85
2022/10/18 00:03:33;;;;;;;20.52;11.52;;;;;;;14.29;100.00;102457.75;4991244;28;20320;-84
2022/10/18 00:05:59;;;;;;;15.68;12.25;;;;;;;14.27;100.00;102451.72;5011703;28;20191;-84
2022/10/18 00:08:25;;;;;;;16.40;11.23;;;;;;;14.28;100.00;102442.81;5029678;28;20048;-84
2022/10/18 00:10:50;;;;;;;16.55;11.85;;;;;;;14.28;100.00;102445.47;5028728;28;20037;-80
2022/10/18 00:13:16;;;;;;;14.50;11.20;;;;;;;14.27;100.00;102446.41;5010986;28;20076;-84
2022/10/18 00:15:49;;;;;;;15.68;12.50;;;;;;;14.26;100.00;102443.88;5028320;28;20049;-84
2022/10/18 00:18:15;;;;;;;13.07;10.82;;;;;;;14.26;100.00;102450.03;5010345;28;20017;-84
2022/10/18 00:20:40;;;;;;;14.48;11.35;;;;;;;14.27;100.00;102446.41;5029458;28;20028;-84
2022/10/18 00:23:05;;;;;;;13.85;12.20;;;;;;;14.25;100.00;102450.97;5028757;28;20104;-84
2022/10/18 00:25:30;;;;;;;15.95;11.95;;;;;;;14.26;100.00;102444.72;5010835;28;20028;-84
2022/10/18 00:27:56;;;;;;;12.52;10.73;;;;;;;14.27;100.00;102449.06;5010783;28;20424;-84
2022/10/18 00:30:21;;;;;;;16.15;11.45;;;;;;;14.27;100.00;102441.13;5011893;28;20029;-84
2022/10/18 00:32:46;;;;;;;15.35;11.27;;;;;;;14.29;100.00;102443.69;5028700;28;20544;-80
2022/10/18 00:35:12;;;;;;;15.50;11.68;;;;;;;14.27;100.00;102445.56;5011526;28;20029;-84
2022/10/18 00:37:37;;;;;;;12.57;10.52;;;;;;;14.27;100.00;102443.78;5028459;28;20140;-84
2022/10/18 00:40:03;;;;;;;14.98;11.95;;;;;;;14.23;100.00;102439.63;5011525;28;20128;-84
2022/10/18 00:42:34;;;;;;;16.30;11.73;;;;;;;14.26;100.00;102435.94;5011840;28;20482;-84
2022/10/18 00:45:15;;;;;;;15.70;11.95;;;;;;;14.29;100.00;102446.31;5010765;28;20033;-84
2022/10/18 00:47:44;;;;;;;18.58;11.73;;;;;;;14.25;100.00;102450.97;5029737;28;20029;-84
2022/10/18 00:50:10;;;;;;;14.35;11.90;;;;;;;14.25;100.00;102450.13;5022806;28;20021;-85
2022/10/18 00:52:40;;;;;;;14.65;12.90;;;;;;;14.22;100.00;102447.66;5007686;28;20029;-85
2022/10/18 00:55:07;;;;;;;14.98;11.93;;;;;;;14.21;100.00;102452.13;5011035;28;20120;-84
2022/10/18 00:57:33;;;;;;;16.88;11.82;;;;;;;14.22;100.00;102453.81;5028877;28;20033;-85
2022/10/18 00:59:59;;;;;;;14.68;13.07;;;;;;;14.20;100.00;102455.72;5028771;28;20359;-86
2022/10/18 01:02:25;;;;;;;15.40;12.15;;;;;;;14.20;100.00;102466.28;5011358;28;20385;-86
2022/10/18 01:04:50;;;;;;;18.58;12.25;;;;;;;14.20;100.00;102466.28;5010958;28;20482;-85
2022/10/18 01:07:26;;;;;;;15.68;12.15;;;;;;;14.22;100.00;102460.91;5027671;28;20030;-85
2022/10/18 01:10:10;;;;;;;16.58;12.75;;;;;;;14.22;100.00;102467.06;5029067;28;20029;-81
2022/10/18 01:12:49;;;;;;;14.43;12.10;;;;;;;14.18;100.00;102476.13;5029240;28;20036;-85
2022/10/18 01:15:29;;;;;;;14.13;11.73;;;;;;;14.19;100.00;102479.63;5010408;28;20038;-85
2022/10/18 01:18:18;;;;;;;14.15;12.05;;;;;;;14.19;100.00;102469.03;5011349;28;20055;-85
2022/10/18 01:21:05;;;;;;;17.83;12.18;;;;;;;14.20;100.00;102466.28;5028147;28;20416;-85
2022/10/18 01:24:03;;;;;;;12.82;11.63;;;;;;;14.19;100.00;102464.59;5010727;28;20043;-85
2022/10/18 01:26:39;;;;;;;16.38;12.15;;;;;;;14.16;100.00;102458.66;5010545;28;20078;-85
2022/10/18 01:29:35;;;;;;;19.00;12.18;;;;;;;14.19;100.00;102467.25;5010899;28;20030;-86
2022/10/18 01:32:06;;;;;;;13.57;11.40;;;;;;;14.15;100.00;102460.44;5010095;28;20029;-85
2022/10/18 01:34:35;;;;;;;17.08;11.80;;;;;;;14.10;100.00;102463.38;5010042;28;20025;-86
2022/10/18 01:37:03;;;;;;;14.65;11.68;;;;;;;14.11;100.00;102464.25;5010443;28;20382;-86
2022/10/18 01:39:34;;;;;;;15.25;12.15;;;;;;;14.09;100.00;102469.63;5012868;28;20669;-86
2022/10/18 01:42:04;;;;;;;13.60;11.27;;;;;;;14.07;100.00;102474.16;5015137;28;20064;-86
2022/10/18 01:44:31;;;;;;;19.45;12.45;;;;;;;14.07;100.00;102473.31;5032393;28;20815;-86
2022/10/18 01:46:58;;;;;;;16.00;12.32;;;;;;;14.06;100.00;102474.28;5032389;28;20021;-86
2022/10/18 01:49:24;;;;;;;14.15;12.15;;;;;;;14.05;100.00;102473.41;5014181;28;20028;-86
2022/10/18 01:51:49;;;;;;;14.60;12.20;;;;;;;14.04;100.00;102465.56;5033437;28;20055;-86
2022/10/18 01:54:20;;;;;;;13.02;11.52;;;;;;;14.03;100.00;102469.16;5032117;28;20315;-86
2022/10/18 01:57:19;;;;;;;13.98;11.55;;;;;;;14.08;100.00;102472.38;5013671;28;20029;-86
2022/10/18 02:00:02;;;;;;;12.90;11.60;;;;;;;14.05;100.00;102475.22;5032827;28;20071;-85
2022/10/18 02:02:46;;;;;;;16.58;11.88;;;;;;;14.04;100.00;102468.22;5013764;28;20018;-85
2022/10/18 02:05:34;;;;;;;15.07;12.38;;;;;;;14.04;100.00;102465.56;5013540;28;20037;-85
2022/10/18 02:08:06;;;;;;;13.30;11.13;;;;;;;13.99;100.00;102465.84;5019717;28;20029;-85
2022/10/18 02:10:40;;;;;;;12.93;11.63;;;;;;;13.98;100.00;102471.22;5030878;28;20534;-85
2022/10/18 02:13:07;;;;;;;16.95;12.18;;;;;;;13.94;100.00;102472.38;5009983;28;20038;-86
2022/10/18 02:15:36;;;;;;;14.85;11.77;;;;;;;13.94;100.00;102469.72;5010291;28;20060;-85
2022/10/18 02:18:07;;;;;;;16.42;12.07;;;;;;;13.91;100.00;102467.25;5009418;28;20030;-85
2022/10/18 02:20:35;;;;;;;12.60;11.32;;;;;;;13.87;100.00;102455.16;5010179;28;20041;-85
2022/10/18 02:23:02;;;;;;;16.75;12.43;;;;;;;13.90;100.00;102465.56;5010982;28;20018;-86
2022/10/18 02:25:30;;;;;;;15.63;11.98;;;;;;;13.85;100.00;102465.84;4993420;28;20029;-85
2022/10/18 02:27:57;;;;;;;13.60;10.98;;;;;;;13.84;100.00;102471.25;5013362;28;20024;-85
2022/10/18 02:30:30;;;;;;;14.60;11.18;;;;;;;13.84;100.00;102469.44;5012708;28;20049;-85
2022/10/18 02:33:06;;;;;;;15.73;12.60;;;;;;;13.83;100.00;102465.09;5031552;28;20421;-86
2022/10/18 02:35:38;;;;;;;15.05;11.73;;;;;;;13.83;100.00;102472.19;5013236;28;20280;-81
2022/10/18 02:38:05;;;;;;;12.52;11.20;;;;;;;13.79;100.00;102472.38;5011870;28;20030;-81
2022/10/18 02:40:31;;;;;;;11.95;10.70;;;;;;;13.78;100.00;102475.97;5013443;28;20112;-85
2022/10/18 02:42:57;;;;;;;12.93;11.43;;;;;;;13.80;100.00;102478.53;5025545;28;20108;-81
2022/10/18 02:45:24;;;;;;;17.50;11.27;;;;;;;13.76;100.00;102477.84;4993460;28;20026;-86
2022/10/18 02:47:49;;;;;;;14.93;11.90;;;;;;;13.74;100.00;102479.75;4999576;28;20025;-86
2022/10/18 02:50:15;;;;;;;13.48;11.52;;;;;;;13.74;100.00;102479.75;5012968;28;20252;-86
2022/10/18 02:52:40;;;;;;;12.48;11.18;;;;;;;13.76;100.00;102480.50;5029646;28;20117;-85
2022/10/18 02:55:08;;;;;;;13.65;11.80;;;;;;;13.74;100.00;102486.84;5030880;28;20108;-86
2022/10/18 02:57:33;;;;;;;15.07;11.48;;;;;;;13.75;100.00;102481.44;5031241;28;20116;-81
2022/10/18 02:59:59;;;;;;;13.52;11.40;;;;;;;13.73;100.00;102479.84;5012322;28;20112;-81
2022/10/18 03:02:27;;;;;;;12.50;11.20;;;;;;;13.74;100.00;102485.03;5013271;28;20031;-81
2022/10/18 03:04:53;;;;;;;14.77;11.23;;;;;;;13.76;100.00;102475.22;5013426;28;20061;-81
2022/10/18 03:07:18;;;;;;;13.43;11.93;;;;;;;13.74;100.00;102473.59;5029823;28;20434;-81
2022/10/18 03:09:43;;;;;;;12.82;11.10;;;;;;;13.74;100.00;102478.91;5031385;28;20041;-85
2022/10/18 03:12:12;;;;;;;14.15;11.43;;;;;;;13.72;100.00;102481.63;5012504;28;20053;-86
2022/10/18 03:14:37;;;;;;;15.38;11.82;;;;;;;13.73;100.00;102488.63;5030246;28;20458;-86
2022/10/18 03:17:03;;;;;;;13.57;11.82;;;;;;;13.73;100.00;102477.19;5030169;28;20064;-86
2022/10/18 03:19:28;;;;;;;14.80;11.68;;;;;;;13.74;100.00;102473.59;5029873;28;20411;-86
2022/10/18 03:21:53;;;;;;;15.52;11.88;;;;;;;13.72;100.00;102471.06;5012645;28;20108;-86
2022/10/18 03:24:19;;;;;;;13.75;12.18;;;;;;;13.73;100.00;102483.34;5011591;28;20540;-86
2022/10/18 03:26:44;;;;;;;13.38;11.82;;;;;;;13.70;100.00;102488.81;5029712;28;20259;-86
2022/10/18 03:29:10;;;;;;;14.98;12.40;;;;;;;13.71;100.00;102495.81;5011948;28;20355;-81
2022/10/18 03:31:36;;;;;;;13.45;11.60;;;;;;;13.70;100.00;102487.97;5012483;28;20112;-81
2022/10/18 03:34:01;;;;;;;15.60;12.82;;;;;;;13.70;100.00;102488.81;5011429;28;20148;-81
2022/10/18 03:36:26;;;;;;;16.42;13.65;;;;;;;13.69;100.00;102481.81;5029591;28;20075;-81
2022/10/18 03:38:52;;;;;;;21.13;13.18;;;;;;;13.71;100.00;102485.22;5012859;28;20025;-81
2022/10/18 03:41:17;;;;;;;24.23;15.82;;;;;;;13.70;100.00;102483.53;5029217;28;20036;-81
2022/10/18 03:43:42;;;;;;;17.00;15.30;;;;;;;13.70;100.00;102488.81;5008524;28;20434;-81
2022/10/18 03:46:08;;;;;;;18.17;16.23;;;;;;;13.72;100.00;102486.94;5030114;28;20026;-86
2022/10/18 03:48:33;;;;;;;24.88;15.65;;;;;;;13.70;100.00;102483.53;5011474;28;20099;-81
2022/10/18 03:50:59;;;;;;;16.58;14.82;;;;;;;13.73;100.00;102482.50;5030114;28;20258;-85
2022/10/18 03:53:24;;;;;;;19.83;14.25;;;;;;;13.71;100.00;102481.72;5011801;28;20377;-86
2022/10/18 03:55:53;;;;;;;20.45;15.73;;;;;;;13.67;100.00;102475.78;5029833;28;20025;-86
2022/10/18 03:58:18;;;;;;;18.55;15.93;;;;;;;13.64;100.00;102470.69;5029649;28;20108;-85
2022/10/18 04:00:43;;;;;;;18.52;16.55;;;;;;;13.63;100.00;102468.97;5012517;28;20172;-86
2022/10/18 04:03:12;;;;;;;22.45;16.05;;;;;;;13.59;100.00;102475.38;5011153;28;20026;-86
2022/10/18 04:05:37;;;;;;;18.95;15.98;;;;;;;13.57;100.00;102471.97;5012989;28;20021;-86
2022/10/18 04:08:03;;;;;;;18.00;16.00;;;;;;;13.56;100.00;102464.97;5030065;28;20025;-86
2022/10/18 04:10:28;;;;;;;22.92;16.23;;;;;;;13.55;100.00;102475.66;5020404;28;20042;-85
2022/10/18 04:12:54;;;;;;;17.40;15.68;;;;;;;13.52;100.00;102471.41;4995813;28;20026;-80
2022/10/18 04:15:20;;;;;;;19.85;16.05;;;;;;;13.53;100.00;102473.09;5011767;28;20053;-86
2022/10/18 04:17:46;;;;;;;21.63;16.40;;;;;;;13.49;100.00;102472.44;5010455;28;20140;-85
2022/10/18 04:20:11;;;;;;;16.83;14.98;;;;;;;13.51;100.00;102472.34;5011293;28;20406;-86
2022/10/18 04:22:37;;;;;;;19.05;15.02;;;;;;;13.47;100.00;102465.53;4994525;28;20077;-86
2022/10/18 04:25:03;;;;;;;17.05;14.95;;;;;;;13.46;100.00;102477.06;5029118;28;20029;-86
2022/10/18 04:27:28;;;;;;;16.70;14.95;;;;;;;13.44;100.00;102478.94;5016429;28;20481;-86
2022/10/18 04:29:53;;;;;;;19.13;15.32;;;;;;;13.43;100.00;102485.19;5009061;28;20111;-86
2022/10/18 04:32:19;;;;;;;21.75;15.63;;;;;;;13.42;100.00;102480.84;4994365;28;20080;-86
2022/10/18 04:34:44;;;;;;;19.63;15.50;;;;;;;13.39;100.00;102481.03;5011235;28;20425;-86
2022/10/18 04:37:09;;;;;;;22.10;15.32;;;;;;;13.36;100.00;102484.69;5010190;28;20367;-86
2022/10/18 04:39:35;;;;;;;18.67;15.25;;;;;;;13.35;100.00;102493.56;5012111;28;20021;-86
2022/10/18 04:42:00;;;;;;;17.90;15.25;;;;;;;13.32;100.00;102496.41;5028001;28;20471;-86
2022/10/18 04:44:25;;;;;;;20.98;16.60;;;;;;;13.31;100.00;102485.91;5012590;28;20502;-86
2022/10/18 04:46:51;;;;;;;22.48;16.23;;;;;;;13.28;100.00;102481.66;4992632;28;20362;-86
2022/10/18 04:49:16;;;;;;;20.33;16.02;;;;;;;13.28;100.00;102475.53;5023708;28;20026;-85
2022/10/18 04:51:41;;;;;;;20.92;16.17;;;;;;;13.27;100.00;102495.81;5028550;28;20108;-86
2022/10/18 04:54:07;;;;;;;18.70;15.48;;;;;;;13.25;100.00;102495.06;5010820;28;20025;-85
2022/10/18 04:56:32;;;;;;;17.50;14.60;;;;;;;13.23;100.00;102498.75;5029197;28;20119;-85
2022/10/18 04:58:58;;;;;;;16.70;14.95;;;;;;;13.21;100.00;102503.25;5027092;28;20188;-85
2022/10/18 05:01:24;;;;;;;16.80;15.07;;;;;;;13.18;100.00;102507.75;5022670;28;20028;-86
2022/10/18 05:03:54;;;;;;;15.95;14.25;;;;;;;13.16;100.00;102503.47;5028651;28;20080;-85
2022/10/18 05:06:20;;;;;;;16.35;14.52;;;;;;;13.15;100.00;102492.06;5010187;28;20066;-81
2022/10/18 05:08:45;;;;;;;16.33;14.63;;;;;;;13.15;100.00;102492.06;5029323;28;20099;-86
2022/10/18 05:11:10;;;;;;;17.60;14.55;;;;;;;13.12;100.00;102486.94;5011164;28;20077;-85
2022/10/18 05:13:37;;;;;;;15.65;13.95;;;;;;;13.10;100.00;102493.28;5030223;28;20112;-86
2022/10/18 05:16:03;;;;;;;16.95;14.32;;;;;;;13.11;100.00;102505.53;5032692;28;20166;-86
2022/10/18 05:18:29;;;;;;;15.88;14.20;;;;;;;13.11;100.00;102503.75;5030014;28;20038;-85
2022/10/18 05:20:54;;;;;;;15.80;14.13;;;;;;;13.10;100.00;102504.69;5031184;28;20164;-85
2022/10/18 05:23:19;;;;;;;17.50;14.13;;;;;;;13.11;100.00;102506.38;5031879;28;20112;-85
2022/10/18 05:25:45;;;;;;;15.57;14.07;;;;;;;13.09;100.00;102508.28;5033019;28;20052;-85
2022/10/18 05:28:10;;;;;;;16.45;13.65;;;;;;;13.05;100.00;102506.75;5031458;28;20032;-86
2022/10/18 05:30:37;;;;;;;14.25;12.82;;;;;;;13.06;100.00;102513.75;5015089;28;20024;-85
2022/10/18 05:33:03;;;;;;;18.02;13.60;;;;;;;13.02;100.00;102511.38;5031391;28;20025;-80
2022/10/18 05:35:28;;;;;;;15.88;14.18;;;;;;;12.99;100.00;102517.69;5032647;28;20044;-85
2022/10/18 05:37:53;;;;;;;16.50;13.95;;;;;;;13.00;100.00;102513.25;5032649;28;20021;-85
2022/10/18 05:40:19;;;;;;;15.48;13.82;;;;;;;12.97;100.00;102514.28;5031228;28;20144;-85
2022/10/18 05:42:44;;;;;;;17.42;14.63;;;;;;;12.94;100.00;102516.25;5014689;28;20029;-80
2022/10/18 05:45:09;;;;;;;18.42;15.13;;;;;;;12.95;100.00;102516.16;5014081;28;20025;-86
2022/10/18 05:47:35;;;;;;;17.38;15.50;;;;;;;12.97;100.00;102509.00;5031922;28;20533;-86
2022/10/18 05:50:00;;;;;;;19.27;16.80;;;;;;;12.97;100.00;102514.28;5013990;28;20032;-85
2022/10/18 05:52:26;;;;;;;21.27;17.05;;;;;;;12.91;100.00;102508.50;5010839;28;20018;-86
2022/10/18 05:54:51;;;;;;;22.35;18.25;;;;;;;12.93;100.00;102522.47;5012187;28;20361;-85
2022/10/18 05:57:16;;;;;;;26.35;18.98;;;;;;;12.91;100.00;102527.00;4994460;28;20037;-85
2022/10/18 05:59:42;;;;;;;23.10;18.20;;;;;;;12.88;100.00;102528.00;5011171;28;20045;-80
2022/10/18 06:02:10;;;;;;;24.00;20.00;;;;;;;12.88;100.00;102530.66;5027490;28;20021;-85
2022/10/18 06:04:35;;;;;;;24.42;18.13;;;;;;;12.89;100.00;102532.38;5032535;28;20033;-85
2022/10/18 06:07:00;;;;;;;27.60;20.48;;;;;;;12.84;100.00;102539.69;5031805;28;20330;-85
2022/10/18 06:09:27;;;;;;;33.95;20.65;;;;;;;12.81;100.00;102537.22;5031247;28;20405;-80
2022/10/18 06:11:52;;;;;;;24.20;19.58;;;;;;;12.80;100.00;102540.78;5014527;28;20128;-84
2022/10/18 06:14:18;;;;;;;30.55;20.17;;;;;;;12.78;100.00;102534.72;5031630;28;20710;-85
2022/10/18 06:16:43;;;;;;;30.10;19.27;;;;;;;12.79;100.00;102541.72;5013483;28;20033;-84
2022/10/18 06:19:12;;;;;;;48.50;18.20;;;;;;;12.76;100.00;102532.19;4987219;28;20023;-85
2022/10/18 06:21:37;;;;;;;21.00;16.80;;;;;;;12.76;100.00;102536.59;4984293;28;20036;-80
2022/10/18 06:24:03;;;;;;;29.70;17.05;;;;;;;12.75;100.00;102546.31;5010838;28;20485;-79
2022/10/18 06:26:28;;;;;;;16.67;15.07;;;;;;;12.74;100.00;102551.69;5009653;28;20471;-80
2022/10/18 06:28:53;;;;;;;17.75;16.05;;;;;;;12.75;100.00;102550.75;5011558;28;20042;-80
2022/10/18 06:31:20;;;;;;;24.13;16.05;;;;;;;12.73;100.00;102548.19;5009404;28;20046;-84
2022/10/18 06:33:45;;;;;;;20.30;15.20;;;;;;;12.73;100.00;102552.63;5010553;28;20184;-84
2022/10/18 06:36:14;;;;;;;31.67;15.80;;;;;;;12.75;100.00;102554.25;5009189;28;20492;-80
2022/10/18 06:38:40;;;;;;;21.42;15.80;;;;;;;12.79;100.00;102560.22;4993863;28;20390;-80
2022/10/18 06:41:06;;;;;;;38.60;17.67;;;;;;;12.83;100.00;102561.78;5010499;28;20049;-80
2022/10/18 06:43:31;;;;;;;46.65;18.80;;;;;;;12.85;100.00;102566.03;5010375;28;20053;-81
2022/10/18 06:45:56;;;;;;;32.25;18.27;;;;;;;12.89;100.00;102563.22;5010978;28;20033;-85
2022/10/18 06:48:23;;;;;;;41.17;20.15;;;;;;;12.88;100.00;102561.50;5005583;28;20034;-86
2022/10/18 06:50:53;;;;;;;57.97;19.95;;;;;;;12.85;100.00;102557.25;4989492;28;20072;-86
2022/10/18 06:53:19;;;;;;;46.72;19.50;;;;;;;12.85;100.00;102559.91;5010501;28;20021;-86
2022/10/18 06:55:45;;;;;;;51.00;18.67;;;;;;;12.87;100.00;102573.88;5011229;28;20301;-86
2022/10/18 06:58:11;;;;;;;41.00;18.27;;;;;;;12.91;100.00;102587.75;5009762;28;20022;-86
2022/10/18 07:00:36;;;;;;;31.25;18.20;;;;;;;12.93;100.00;102596.44;5010646;28;20033;-86
2022/10/18 07:03:04;;;;;;;50.55;19.83;;;;;;;12.89;100.00;102595.75;5000595;28;20045;-86
2022/10/18 07:05:30;;;;;;;59.70;21.90;;;;;;;12.86;100.00;102595.94;5007472;28;20036;-86
2022/10/18 07:07:56;;;;;;;41.60;18.60;;;;;;;12.86;100.00;102588.88;4992563;28;20045;-86
2022/10/18 07:10:23;;;;;;;33.85;18.48;;;;;;;12.90;100.00;102596.63;5010261;28;20479;-86
2022/10/18 07:12:49;;;;;;;33.42;17.80;;;;;;;12.86;100.00;102603.88;5010378;28;20026;-86
2022/10/18 07:15:16;;;;;;;25.27;17.48;;;;;;;12.86;100.00;102614.44;4999699;28;20651;-86
2022/10/18 07:17:44;;;;;;;29.25;18.08;;;;;;;12.85;100.00;102610.94;5002695;28;20425;-86
2022/10/18 07:20:10;;;;;;;23.20;17.33;;;;;;;12.88;100.00;102607.28;5019608;28;20033;-86
2022/10/18 07:22:37;;;;;;;21.55;16.58;;;;;;;12.94;100.00;102606.94;5020748;28;20025;-86
2022/10/18 07:25:03;;;;;;;27.77;19.00;;;;;;;12.95;100.00;102611.28;5020054;28;20023;-86
2022/10/18 07:27:29;;;;;;;23.92;19.70;;;;;;;13.04;100.00;102616.03;5005640;28;20090;-86
2022/10/18 07:29:54;;;;;;;34.53;21.15;;;;;;;13.07;100.00;102625.59;5026830;28;20105;-86
2022/10/18 07:32:19;;;;;;;29.98;22.15;;;;;;;13.07;100.00;102631.72;5030312;28;20060;-85
2022/10/18 07:34:45;;;;;;;44.65;24.35;;;;;;;13.11;100.00;102638.53;5030843;28;20510;-86
2022/10/18 07:37:10;;;;;;;71.85;24.85;;;;;;;13.13;100.00;102634.00;5029379;28;20064;-85
2022/10/18 07:39:35;;;;;;;38.92;23.70;;;;;;;13.16;100.00;102643.56;5012479;28;20091;-85
2022/10/18 07:42:01;;;;;;;61.17;24.05;;;;;;;13.16;100.00;102647.06;5030680;28;20032;-85
2022/10/18 07:44:26;;;;;;;34.25;24.02;;;;;;;13.24;100.00;102649.31;5030555;28;20083;-85
2022/10/18 07:46:51;;;;;;;55.72;24.58;;;;;;;13.27;100.00;102648.31;5012728;28;20663;-85
2022/10/18 07:49:17;;;;;;;53.45;24.33;;;;;;;13.30;100.00;102650.78;5011528;28;20033;-85
2022/10/18 07:51:42;;;;;;;38.85;24.20;;;;;;;13.34;100.00;102661.06;5014521;28;20034;-85
2022/10/18 07:54:08;;;;;;;41.20;24.52;;;;;;;13.35;100.00;102673.34;4995558;28;20017;-86
2022/10/18 07:56:33;;;;;;;43.55;25.00;;;;;;;13.37;100.00;102670.63;5029231;28;20056;-85
2022/10/18 07:58:58;;;;;;;31.27;24.10;;;;;;;13.47;100.00;102675.31;5030499;28;20061;-85
2022/10/18 08:01:24;;;;;;;39.85;25.73;;;;;;;13.50;100.00;102676.91;5028468;28;20029;-85
2022/10/18 08:03:50;;;;;;;39.55;25.17;;;;;;;13.51;100.00;102678.63;5030996;28;20088;-85
2022/10/18 08:06:18;;;;;;;40.58;26.58;;;;;;;13.52;100.00;102680.31;5009222;28;20029;-85
2022/10/18 08:08:44;;;;;;;36.75;24.80;;;;;;;13.51;100.00;102683.91;5010230;28;20545;-85
2022/10/18 08:11:18;;;;;;;45.50;25.52;;;;;;;13.62;100.00;102699.19;4993880;28;20061;-86
2022/10/18 08:13:44;;;;;;;32.70;24.88;;;;;;;13.58;100.00;102705.56;5012736;28;20107;-83
2022/10/18 08:16:13;;;;;;;39.50;25.02;;;;;;;13.60;100.00;102704.53;5011699;28;20112;-86
2022/10/18 08:18:38;;;;;;;33.22;24.25;;;;;;;13.62;100.00;102707.13;5010591;28;20037;-86
2022/10/18 08:21:06;;;;;;;37.25;25.77;;;;;;;13.60;100.00;102699.25;5018670;28;20511;-86
2022/10/18 08:23:32;;;;;;;41.40;26.80;;;;;;;13.68;100.00;102699.69;5029337;28;20067;-86
2022/10/18 08:26:02;;;;;;;40.88;28.42;;;;;;;13.72;100.00;102709.16;5012233;28;20049;-86
2022/10/18 08:28:28;;;;;;;41.95;28.58;;;;;;;13.77;100.00;102703.59;5030126;28;20426;-87
2022/10/18 08:30:53;;;;;;;42.45;27.45;;;;;;;13.86;100.00;102712.78;5029542;28;20053;-87
2022/10/18 08:33:18;;;;;;;42.17;27.25;;;;;;;13.92;100.00;102715.91;5029537;28;20462;-87
2022/10/18 08:35:54;;;;;;;40.17;26.80;;;;;;;14.00;100.00;102718.13;5030128;28;20091;-86
2022/10/18 08:38:19;;;;;;;37.10;25.33;;;;;;;13.99;100.00;102727.84;5011617;28;20025;-86
2022/10/18 08:40:44;;;;;;;36.08;25.13;;;;;;;13.96;100.00;102732.47;5030166;28;20382;-86
2022/10/18 08:43:41;;;;;;;40.15;24.17;;;;;;;13.99;100.00;102725.19;5027842;28;20039;-86
2022/10/18 08:46:11;;;;;;;40.55;24.42;;;;;;;13.93;100.00;102725.56;5018790;28;20048;-86
2022/10/18 08:48:42;;;;;;;33.20;24.13;;;;;;;13.97;100.00;102721.78;5028488;28;20517;-85
2022/10/18 08:51:25;;;;;;;37.70;25.05;;;;;;;14.00;100.00;102728.69;5019228;28;20044;-85
2022/10/18 08:54:03;;;;;;;36.42;25.75;;;;;;;14.10;100.00;102727.25;5011928;28;20029;-85
2022/10/18 08:56:30;;;;;;;44.67;26.08;;;;;;;14.19;100.00;102724.06;5005354;28;20040;-85
2022/10/18 08:58:56;;;;;;;37.72;26.35;;;;;;;14.34;100.00;102725.78;5028658;28;20052;-85
2022/10/18 09:01:59;;;;;;;38.95;26.50;;;;;;;14.51;100.00;102726.59;5029658;28;20025;-84
2022/10/18 09:04:57;;;;;;;36.70;24.90;;;;;;;14.64;100.00;102730.22;5022650;28;20115;-81
2022/10/18 09:07:46;;;;;;;35.38;23.80;;;;;;;14.60;100.00;102723.41;5010236;28;20486;-84
2022/10/18 09:10:49;;;;;;;37.10;24.20;;;;;;;14.77;100.00;102719.69;4996383;28;20037;-84
2022/10/18 09:13:32;;;;;;;36.97;20.05;;;;;;;14.80;100.00;102719.50;5008645;28;20057;-84
2022/10/18 09:16:01;;;;;;;34.25;18.40;;;;;;;14.78;100.00;102730.19;4997518;28;20124;-83
2022/10/18 09:19:02;;;;;;;29.65;19.05;;;;;;;14.82;100.00;102729.09;5023125;28;20064;-83
2022/10/18 09:22:12;;;;;;;28.15;18.40;;;;;;;14.94;100.00;102728.31;5011882;28;20029;-80
2022/10/18 09:24:43;;;;;;;25.42;17.80;;;;;;;15.02;100.00;102728.69;4995154;28;20041;-80
2022/10/18 09:27:16;;;;;;;24.67;16.63;;;;;;;15.04;100.00;102718.84;5028397;28;20367;-80
2022/10/18 09:30:01;;;;;;;29.80;17.52;;;;;;;15.14;100.00;102729.72;5029434;28;20478;-81
2022/10/18 09:32:37;;;;;;;24.60;16.10;;;;;;;15.25;100.00;102723.75;5010101;28;20394;-81
2022/10/18 09:35:20;;;;;;;30.00;15.82;;;;;;;15.30;100.00;102721.66;5028988;28;20036;-83
2022/10/18 09:37:46;;;;;;;22.45;14.95;;;;;;;15.33;100.00;102724.09;5010810;28;20032;-83
2022/10/18 09:40:20;;;;;;;23.80;14.10;;;;;;;15.34;100.00;102731.13;5028225;28;20029;-83
2022/10/18 09:42:54;;;;;;;28.83;14.02;;;;;;;15.47;100.00;102733.81;5011632;28;20518;-83
2022/10/18 09:45:46;;;;;;;29.05;14.43;;;;;;;15.45;100.00;102728.63;5011407;28;20456;-84
2022/10/18 09:48:26;;;;;;;25.05;13.38;;;;;;;15.57;100.00;102732.28;5027767;28;20022;-84
2022/10/18 09:50:57;;;;;;;23.70;12.73;;;;;;;15.58;100.00;102724.25;5028235;28;20026;-84
2022/10/18 09:53:36;;;;;;;23.70;11.15;;;;;;;15.72;100.00;102736.63;5015345;28;20116;-84
2022/10/18 09:56:09;;;;;;;20.05;10.77;;;;;;;15.77;100.00;102745.16;5028916;28;20408;-81
2022/10/18 09:58:42;;;;;;;19.50;10.18;;;;;;;15.83;99.55;102736.78;5029225;28;20497;-84
2022/10/18 10:01:14;;;;;;;20.40;10.43;;;;;;;15.85;97.90;102739.31;5013395;28;20505;-84
2022/10/18 10:03:41;;;;;;;22.80;12.20;;;;;;;15.95;99.36;102732.44;5014820;28;20036;-84
2022/10/18 10:06:15;;;;;;;19.80;12.30;;;;;;;15.95;98.22;102732.44;5012901;28;20063;-84
2022/10/18 10:08:43;;;;;;;18.55;11.55;;;;;;;16.07;98.46;102736.97;5030592;28;20084;-84
2022/10/18 10:11:33;;;;;;;22.73;10.90;;;;;;;16.14;98.05;102735.59;5011550;28;20041;-85
2022/10/18 10:14:08;;;;;;;24.85;12.05;;;;;;;16.25;100.00;102727.72;5029762;28;20029;-84
2022/10/18 10:16:52;;;;;;;18.52;10.18;;;;;;;16.29;96.03;102726.56;4994298;28;20133;-84
2022/10/18 10:19:56;;;;;;;22.92;10.40;;;;;;;16.37;97.06;102733.16;4998250;28;20068;-85
2022/10/18 10:22:30;;;;;;;20.50;10.90;;;;;;;16.47;95.96;102723.63;5007366;28;20037;-85
2022/10/18 10:24:56;;;;;;;19.60;10.38;;;;;;;16.50;94.21;102734.88;4995315;28;20053;-85
2022/10/18 10:27:32;;;;;;;20.42;10.82;;;;;;;16.61;95.69;102736.81;5012905;28;20053;-85
2022/10/18 10:30:00;;;;;;;21.30;11.63;;;;;;;16.66;94.22;102737.38;5012080;28;20026;-85
2022/10/18 10:32:44;;;;;;;19.90;10.18;;;;;;;16.64;92.99;102730.41;5012559;28;20026;-85
2022/10/18 10:35:21;;;;;;;19.15;10.68;;;;;;;16.89;93.89;102739.28;4995016;28;20112;-85
2022/10/18 10:37:51;;;;;;;21.52;11.45;;;;;;;17.02;96.17;102749.03;4994745;28;20394;-85
2022/10/18 10:40:20;;;;;;;21.20;10.45;;;;;;;16.84;89.76;102744.06;4994633;28;20080;-85
2022/10/18 10:43:05;;;;;;;19.70;11.10;;;;;;;17.02;92.76;102757.00;4994019;28;20037;-85
2022/10/18 10:45:35;;;;;;;20.10;9.38;;;;;;;17.11;90.93;102756.34;4994976;28;20042;-85
2022/10/18 10:48:05;;;;;;;17.70;7.30;;;;;;;17.03;86.31;102748.94;5012007;28;20028;-84
2022/10/18 10:50:30;;;;;;;15.05;6.25;;;;;;;17.06;85.85;102753.19;4994459;28;20033;-85
2022/10/18 10:52:58;;;;;;;19.35;8.27;;;;;;;17.09;85.96;102763.59;4993007;28;20033;-84
2022/10/18 10:55:30;;;;;;;19.30;6.93;;;;;;;16.99;83.24;102760.75;5001753;28;20080;-85
2022/10/18 10:57:58;;;;;;;14.80;6.33;;;;;;;16.98;83.17;102755.53;5010973;28;20070;-85
2022/10/18 11:00:36;;;;;;;19.75;7.18;;;;;;;17.10;87.21;102762.63;5012257;28;20688;-85
2022/10/18 11:03:13;;;;;;;16.90;7.20;;;;;;;17.15;86.99;102763.16;4993905;28;20037;-84
2022/10/18 11:05:56;;;;;;;19.98;7.40;;;;;;;17.21;87.81;102754.72;5011674;28;20105;-84
2022/10/18 11:08:25;;;;;;;20.80;6.85;;;;;;;17.31;86.04;102763.78;4992447;28;20014;-82
2022/10/18 11:11:12;;;;;;;21.10;8.52;;;;;;;17.34;84.50;102768.03;4992927;28;20121;-85
2022/10/18 11:14:20;;;;;;;17.40;6.50;;;;;;;17.43;88.21;102762.88;5011305;28;20033;-85